sensor_id;sensor_type;location;lat;lon;timestamp;temperature;humidity
79439;DHT22;68889;48.232;10.110;2024-01-30T00:01:58;-0.80;99.90
79439;DHT22;68889;48.232;10.110;2024-01-30T00:04:24;-0.70;99.90
79439;DHT22;68889;48.232;10.110;2024-01-30T00:06:51;-0.60;99.90
79439;DHT22;68889;48.232;10.110;2024-01-30T00:09:16;-0.60;99.90
79439;DHT22;68889;48.232;10.110;2024-01-30T00:11:42;-0.50;99.90
79439;DHT22;68889;48.232;10.110;2024-01-30T00:14:09;-0.50;99.90
79439;DHT22;68889;48.232;10.110;2024-01-30T00:16:35;-0.50;99.90
79439;DHT22;68889;48.232;10.110;2024-01-30T00:19:00;-0.50;99.90
79439;DHT22;68889;48.232;10.110;2024-01-30T00:21:28;-0.50;99.90
79439;DHT22;68889;48.232;10.110;2024-01-30T00:23:54;-0.50;99.90
79439;DHT22;68889;48.232;10.110;2024-01-30T00:26:20;-0.60;99.90
79439;DHT22;68889;48.232;10.110;2024-01-30T00:28:46;-0.60;99.90
79439;DHT22;68889;48.232;10.110;2024-01-30T00:31:11;-0.60;99.90
79439;DHT22;68889;48.232;10.110;2024-01-30T00:33:41;-0.70;99.90
79439;DHT22;68889;48.232;10.110;2024-01-30T00:36:08;-0.70;99.90
79439;DHT22;68889;48.232;10.110;2024-01-30T00:38:35;-0.70;99.90
79439;DHT22;68889;48.232;10.110;2024-01-30T00:41:01;-0.80;99.90
79439;DHT22;68889;48.232;10.110;2024-01-30T00:43:30;-0.80;99.90
79439;DHT22;68889;48.232;10.110;2024-01-30T00:45:58;-0.80;99.90
79439;DHT22;68889;48.232;10.110;2024-01-30T00:48:24;-0.90;99.90
79439;DHT22;68889;48.232;10.110;2024-01-30T00:50:51;-1.00;99.90
79439;DHT22;68889;48.232;10.110;2024-01-30T00:53:17;-1.00;99.90
79439;DHT22;68889;48.232;10.110;2024-01-30T00:55:43;-1.10;99.90
79439;DHT22;68889;48.232;10.110;2024-01-30T00:58:08;-1.10;99.90
79439;DHT22;68889;48.232;10.110;2024-01-30T01:00:34;-1.00;99.90
79439;DHT22;68889;48.232;10.110;2024-01-30T01:03:00;-0.90;99.90
79439;DHT22;68889;48.232;10.110;2024-01-30T01:08:01;-0.70;99.90
79439;DHT22;68889;48.232;10.110;2024-01-30T01:10:28;-0.70;99.90
79439;DHT22;68889;48.232;10.110;2024-01-30T01:12:54;-0.70;99.90
79439;DHT22;68889;48.232;10.110;2024-01-30T01:15:20;-0.60;99.90
79439;DHT22;68889;48.232;10.110;2024-01-30T01:17:45;-0.60;99.90
79439;DHT22;68889;48.232;10.110;2024-01-30T01:20:11;-0.60;99.90
79439;DHT22;68889;48.232;10.110;2024-01-30T01:22:38;-0.60;99.90
79439;DHT22;68889;48.232;10.110;2024-01-30T01:25:07;-0.70;99.90
79439;DHT22;68889;48.232;10.110;2024-01-30T01:27:33;-0.60;99.90
79439;DHT22;68889;48.232;10.110;2024-01-30T01:30:00;-0.70;99.90
79439;DHT22;68889;48.232;10.110;2024-01-30T01:32:26;-0.80;99.90
79439;DHT22;68889;48.232;10.110;2024-01-30T01:34:54;-0.80;99.90
79439;DHT22;68889;48.232;10.110;2024-01-30T01:37:19;-0.80;99.90
79439;DHT22;68889;48.232;10.110;2024-01-30T01:39:47;-0.80;99.90
79439;DHT22;68889;48.232;10.110;2024-01-30T01:42:13;-0.70;99.90
79439;DHT22;68889;48.232;10.110;2024-01-30T01:44:40;-0.70;99.90
79439;DHT22;68889;48.232;10.110;2024-01-30T01:47:05;-0.70;99.90
79439;DHT22;68889;48.232;10.110;2024-01-30T01:49:32;-0.80;99.90
79439;DHT22;68889;48.232;10.110;2024-01-30T01:51:58;-0.80;99.90
79439;DHT22;68889;48.232;10.110;2024-01-30T01:54:30;-0.70;99.90
79439;DHT22;68889;48.232;10.110;2024-01-30T01:56:57;-0.70;99.90
79439;DHT22;68889;48.232;10.110;2024-01-30T01:59:32;-0.70;99.90
79439;DHT22;68889;48.232;10.110;2024-01-30T02:02:01;-0.60;99.90
79439;DHT22;68889;48.232;10.110;2024-01-30T02:04:29;-0.60;99.90
79439;DHT22;68889;48.232;10.110;2024-01-30T02:06:56;-0.60;99.90
79439;DHT22;68889;48.232;10.110;2024-01-30T02:09:24;-0.60;99.90
79439;DHT22;68889;48.232;10.110;2024-01-30T02:11:52;-0.60;99.90
79439;DHT22;68889;48.232;10.110;2024-01-30T02:14:23;-0.50;99.90
79439;DHT22;68889;48.232;10.110;2024-01-30T02:16:51;-0.50;99.90
79439;DHT22;68889;48.232;10.110;2024-01-30T02:19:16;-0.40;99.90
79439;DHT22;68889;48.232;10.110;2024-01-30T02:21:43;-0.40;99.90
79439;DHT22;68889;48.232;10.110;2024-01-30T02:24:10;-0.30;99.90
79439;DHT22;68889;48.232;10.110;2024-01-30T02:26:35;-0.30;99.90
79439;DHT22;68889;48.232;10.110;2024-01-30T02:29:01;-0.30;99.90
79439;DHT22;68889;48.232;10.110;2024-01-30T02:31:28;-0.20;99.90
79439;DHT22;68889;48.232;10.110;2024-01-30T02:33:55;-0.20;99.90
79439;DHT22;68889;48.232;10.110;2024-01-30T02:36:21;-0.10;99.90
79439;DHT22;68889;48.232;10.110;2024-01-30T02:38:47;-0.10;99.90
79439;DHT22;68889;48.232;10.110;2024-01-30T02:41:13;-0.10;99.90
79439;DHT22;68889;48.232;10.110;2024-01-30T02:43:38;-0.10;99.90
79439;DHT22;68889;48.232;10.110;2024-01-30T02:46:04;-0.10;99.90
79439;DHT22;68889;48.232;10.110;2024-01-30T02:48:31;-0.10;99.90
79439;DHT22;68889;48.232;10.110;2024-01-30T02:50:57;-0.10;99.90
79439;DHT22;68889;48.232;10.110;2024-01-30T02:53:23;-0.10;99.90
79439;DHT22;68889;48.232;10.110;2024-01-30T02:55:49;-0.10;99.90
79439;DHT22;68889;48.232;10.110;2024-01-30T02:58:14;0.00;99.90
79439;DHT22;68889;48.232;10.110;2024-01-30T03:00:40;0.00;99.90
79439;DHT22;68889;48.232;10.110;2024-01-30T03:03:05;0.00;99.90
79439;DHT22;68889;48.232;10.110;2024-01-30T03:05:31;0.00;99.90
79439;DHT22;68889;48.232;10.110;2024-01-30T03:07:56;-0.10;99.90
79439;DHT22;68889;48.232;10.110;2024-01-30T03:10:22;-0.10;99.90
79439;DHT22;68889;48.232;10.110;2024-01-30T03:12:48;-0.10;99.90
79439;DHT22;68889;48.232;10.110;2024-01-30T03:15:14;-0.10;99.90
79439;DHT22;68889;48.232;10.110;2024-01-30T03:17:40;-0.20;99.90
79439;DHT22;68889;48.232;10.110;2024-01-30T03:20:06;-0.20;99.90
79439;DHT22;68889;48.232;10.110;2024-01-30T03:22:32;-0.20;99.90
79439;DHT22;68889;48.232;10.110;2024-01-30T03:24:57;-0.30;99.90
79439;DHT22;68889;48.232;10.110;2024-01-30T03:27:23;-0.30;99.90
79439;DHT22;68889;48.232;10.110;2024-01-30T03:29:49;-0.20;99.90
79439;DHT22;68889;48.232;10.110;2024-01-30T03:32:14;-0.10;99.90
79439;DHT22;68889;48.232;10.110;2024-01-30T03:34:40;0.00;99.90
79439;DHT22;68889;48.232;10.110;2024-01-30T03:37:05;0.00;99.90
79439;DHT22;68889;48.232;10.110;2024-01-30T03:39:31;0.00;99.90
79439;DHT22;68889;48.232;10.110;2024-01-30T03:41:56;0.00;99.90
79439;DHT22;68889;48.232;10.110;2024-01-30T03:44:23;0.00;99.90
79439;DHT22;68889;48.232;10.110;2024-01-30T03:46:49;-0.10;99.50
79439;DHT22;68889;48.232;10.110;2024-01-30T03:49:15;-0.20;99.90
79439;DHT22;68889;48.232;10.110;2024-01-30T03:51:41;-0.30;99.90
79439;DHT22;68889;48.232;10.110;2024-01-30T03:54:06;-0.40;99.90
79439;DHT22;68889;48.232;10.110;2024-01-30T03:56:33;-0.40;99.90
79439;DHT22;68889;48.232;10.110;2024-01-30T03:58:59;-0.50;99.90
79439;DHT22;68889;48.232;10.110;2024-01-30T04:01:26;-0.50;99.90
79439;DHT22;68889;48.232;10.110;2024-01-30T04:03:52;-0.60;99.90
79439;DHT22;68889;48.232;10.110;2024-01-30T04:06:18;-0.70;99.90
79439;DHT22;68889;48.232;10.110;2024-01-30T04:08:44;-0.80;99.90
79439;DHT22;68889;48.232;10.110;2024-01-30T04:11:12;-0.90;99.90
79439;DHT22;68889;48.232;10.110;2024-01-30T04:13:37;-1.00;99.90
79439;DHT22;68889;48.232;10.110;2024-01-30T04:16:03;-1.00;99.90
79439;DHT22;68889;48.232;10.110;2024-01-30T04:18:29;-1.00;99.90
79439;DHT22;68889;48.232;10.110;2024-01-30T04:20:58;-1.00;99.90
79439;DHT22;68889;48.232;10.110;2024-01-30T04:23:25;-1.10;99.90
79439;DHT22;68889;48.232;10.110;2024-01-30T04:25:50;-1.10;99.90
79439;DHT22;68889;48.232;10.110;2024-01-30T04:28:16;-1.10;99.90
79439;DHT22;68889;48.232;10.110;2024-01-30T04:30:44;-1.20;99.90
79439;DHT22;68889;48.232;10.110;2024-01-30T04:33:10;-1.30;99.90
79439;DHT22;68889;48.232;10.110;2024-01-30T04:35:36;-1.30;99.90
79439;DHT22;68889;48.232;10.110;2024-01-30T04:38:02;-1.30;99.90
79439;DHT22;68889;48.232;10.110;2024-01-30T04:40:27;-1.40;99.90
79439;DHT22;68889;48.232;10.110;2024-01-30T04:42:53;-1.40;99.90
79439;DHT22;68889;48.232;10.110;2024-01-30T04:45:19;-1.40;99.90
79439;DHT22;68889;48.232;10.110;2024-01-30T04:47:44;-1.50;99.90
79439;DHT22;68889;48.232;10.110;2024-01-30T04:50:10;-1.50;99.90
79439;DHT22;68889;48.232;10.110;2024-01-30T04:52:36;-1.50;99.90
79439;DHT22;68889;48.232;10.110;2024-01-30T04:55:02;-1.50;99.90
79439;DHT22;68889;48.232;10.110;2024-01-30T04:57:28;-1.60;99.90
79439;DHT22;68889;48.232;10.110;2024-01-30T04:59:54;-1.60;99.90
79439;DHT22;68889;48.232;10.110;2024-01-30T05:02:20;-1.60;99.90
79439;DHT22;68889;48.232;10.110;2024-01-30T05:04:45;-1.60;99.90
79439;DHT22;68889;48.232;10.110;2024-01-30T05:07:11;-1.60;99.90
79439;DHT22;68889;48.232;10.110;2024-01-30T05:09:37;-1.60;99.90
79439;DHT22;68889;48.232;10.110;2024-01-30T05:12:03;-1.60;99.90
79439;DHT22;68889;48.232;10.110;2024-01-30T05:14:29;-1.60;99.90
79439;DHT22;68889;48.232;10.110;2024-01-30T05:16:55;-1.70;99.90
79439;DHT22;68889;48.232;10.110;2024-01-30T05:19:20;-1.70;99.90
79439;DHT22;68889;48.232;10.110;2024-01-30T05:21:49;-1.70;99.90
79439;DHT22;68889;48.232;10.110;2024-01-30T05:24:14;-1.70;99.90
79439;DHT22;68889;48.232;10.110;2024-01-30T05:26:40;-1.70;99.90
79439;DHT22;68889;48.232;10.110;2024-01-30T05:29:06;-1.80;99.90
79439;DHT22;68889;48.232;10.110;2024-01-30T05:31:38;-1.80;99.90
79439;DHT22;68889;48.232;10.110;2024-01-30T05:34:04;-1.80;99.90
79439;DHT22;68889;48.232;10.110;2024-01-30T05:36:32;-1.80;99.90
79439;DHT22;68889;48.232;10.110;2024-01-30T05:38:57;-1.90;99.90
79439;DHT22;68889;48.232;10.110;2024-01-30T05:41:23;-1.90;99.90
79439;DHT22;68889;48.232;10.110;2024-01-30T05:43:49;-1.90;99.90
79439;DHT22;68889;48.232;10.110;2024-01-30T05:46:14;-1.90;99.90
79439;DHT22;68889;48.232;10.110;2024-01-30T05:48:40;-1.90;99.90
79439;DHT22;68889;48.232;10.110;2024-01-30T05:51:07;-1.90;99.90
79439;DHT22;68889;48.232;10.110;2024-01-30T05:53:34;-1.90;99.90
79439;DHT22;68889;48.232;10.110;2024-01-30T05:56:02;-2.00;99.90
79439;DHT22;68889;48.232;10.110;2024-01-30T05:58:32;-2.00;99.90
79439;DHT22;68889;48.232;10.110;2024-01-30T06:01:07;-2.00;99.90
79439;DHT22;68889;48.232;10.110;2024-01-30T06:03:37;-2.00;99.90
79439;DHT22;68889;48.232;10.110;2024-01-30T06:06:04;-2.00;99.90
79439;DHT22;68889;48.232;10.110;2024-01-30T06:08:30;-2.10;99.90
79439;DHT22;68889;48.232;10.110;2024-01-30T06:10:59;-2.00;99.90
79439;DHT22;68889;48.232;10.110;2024-01-30T06:13:29;-2.00;99.90
79439;DHT22;68889;48.232;10.110;2024-01-30T06:15:58;-2.00;99.90
79439;DHT22;68889;48.232;10.110;2024-01-30T06:18:24;-2.00;99.90
79439;DHT22;68889;48.232;10.110;2024-01-30T06:20:51;-2.00;99.90
79439;DHT22;68889;48.232;10.110;2024-01-30T06:23:17;-1.90;99.90
79439;DHT22;68889;48.232;10.110;2024-01-30T06:25:44;-1.80;99.90
79439;DHT22;68889;48.232;10.110;2024-01-30T06:28:09;-1.80;99.90
79439;DHT22;68889;48.232;10.110;2024-01-30T06:30:35;-1.80;99.90
79439;DHT22;68889;48.232;10.110;2024-01-30T06:33:01;-1.90;99.90
79439;DHT22;68889;48.232;10.110;2024-01-30T06:35:27;-1.80;99.90
79439;DHT22;68889;48.232;10.110;2024-01-30T06:37:54;-1.80;99.90
79439;DHT22;68889;48.232;10.110;2024-01-30T06:40:21;-1.70;99.90
79439;DHT22;68889;48.232;10.110;2024-01-30T06:42:47;-1.70;99.90
79439;DHT22;68889;48.232;10.110;2024-01-30T06:45:15;-1.80;99.90
79439;DHT22;68889;48.232;10.110;2024-01-30T06:47:41;-1.80;99.90
79439;DHT22;68889;48.232;10.110;2024-01-30T06:50:08;-1.70;99.90
79439;DHT22;68889;48.232;10.110;2024-01-30T06:52:34;-1.70;99.90
79439;DHT22;68889;48.232;10.110;2024-01-30T06:55:01;-1.60;99.90
79439;DHT22;68889;48.232;10.110;2024-01-30T06:57:28;-1.50;99.90
79439;DHT22;68889;48.232;10.110;2024-01-30T07:00:00;-1.50;99.90
79439;DHT22;68889;48.232;10.110;2024-01-30T07:02:25;-1.50;99.90
79439;DHT22;68889;48.232;10.110;2024-01-30T07:04:52;-1.50;99.90
79439;DHT22;68889;48.232;10.110;2024-01-30T07:07:17;-1.40;99.90
79439;DHT22;68889;48.232;10.110;2024-01-30T07:09:43;-1.20;99.90
79439;DHT22;68889;48.232;10.110;2024-01-30T07:12:09;-1.10;99.90
79439;DHT22;68889;48.232;10.110;2024-01-30T07:14:35;-0.90;99.90
79439;DHT22;68889;48.232;10.110;2024-01-30T07:17:02;-0.80;99.90
79439;DHT22;68889;48.232;10.110;2024-01-30T07:19:28;-0.60;99.90
79439;DHT22;68889;48.232;10.110;2024-01-30T07:21:57;-0.40;99.90
79439;DHT22;68889;48.232;10.110;2024-01-30T07:24:23;-0.30;99.90
79439;DHT22;68889;48.232;10.110;2024-01-30T07:26:53;-0.10;99.90
79439;DHT22;68889;48.232;10.110;2024-01-30T07:29:25;0.00;99.90
79439;DHT22;68889;48.232;10.110;2024-01-30T07:31:51;0.20;99.90
79439;DHT22;68889;48.232;10.110;2024-01-30T07:34:19;0.20;99.80
79439;DHT22;68889;48.232;10.110;2024-01-30T07:36:44;0.30;99.50
79439;DHT22;68889;48.232;10.110;2024-01-30T07:39:14;0.30;99.20
79439;DHT22;68889;48.232;10.110;2024-01-30T07:41:40;0.40;98.90
79439;DHT22;68889;48.232;10.110;2024-01-30T07:44:14;0.40;98.40
79439;DHT22;68889;48.232;10.110;2024-01-30T07:46:40;0.40;98.60
79439;DHT22;68889;48.232;10.110;2024-01-30T07:49:07;0.40;98.60
79439;DHT22;68889;48.232;10.110;2024-01-30T07:51:32;0.40;98.90
79439;DHT22;68889;48.232;10.110;2024-01-30T07:53:58;0.40;98.90
79439;DHT22;68889;48.232;10.110;2024-01-30T07:56:28;0.40;99.10
79439;DHT22;68889;48.232;10.110;2024-01-30T07:58:54;0.50;98.80
79439;DHT22;68889;48.232;10.110;2024-01-30T08:01:20;0.60;98.70
79439;DHT22;68889;48.232;10.110;2024-01-30T08:03:53;0.70;98.70
79439;DHT22;68889;48.232;10.110;2024-01-30T08:06:19;0.90;97.90
79439;DHT22;68889;48.232;10.110;2024-01-30T08:08:46;1.00;97.70
79439;DHT22;68889;48.232;10.110;2024-01-30T08:11:12;1.10;97.70
79439;DHT22;68889;48.232;10.110;2024-01-30T08:13:39;1.10;97.40
79439;DHT22;68889;48.232;10.110;2024-01-30T08:16:06;1.20;97.00
79439;DHT22;68889;48.232;10.110;2024-01-30T08:18:35;1.20;97.10
79439;DHT22;68889;48.232;10.110;2024-01-30T08:21:00;1.20;97.20
79439;DHT22;68889;48.232;10.110;2024-01-30T08:23:29;1.30;97.30
79439;DHT22;68889;48.232;10.110;2024-01-30T08:25:57;1.30;97.10
79439;DHT22;68889;48.232;10.110;2024-01-30T08:28:29;1.30;96.80
79439;DHT22;68889;48.232;10.110;2024-01-30T08:30:59;1.40;96.90
79439;DHT22;68889;48.232;10.110;2024-01-30T08:33:26;1.50;96.60
79439;DHT22;68889;48.232;10.110;2024-01-30T08:35:55;1.70;96.20
79439;DHT22;68889;48.232;10.110;2024-01-30T08:38:49;1.90;95.50
79439;DHT22;68889;48.232;10.110;2024-01-30T08:41:25;2.10;95.20
79439;DHT22;68889;48.232;10.110;2024-01-30T08:44:11;2.30;94.50
79439;DHT22;68889;48.232;10.110;2024-01-30T08:46:40;2.40;94.10
79439;DHT22;68889;48.232;10.110;2024-01-30T08:49:21;2.60;93.70
79439;DHT22;68889;48.232;10.110;2024-01-30T08:52:16;2.80;93.40
79439;DHT22;68889;48.232;10.110;2024-01-30T08:55:18;2.90;93.70
79439;DHT22;68889;48.232;10.110;2024-01-30T08:58:50;3.10;92.90
79439;DHT22;68889;48.232;10.110;2024-01-30T09:01:56;3.40;92.20
79439;DHT22;68889;48.232;10.110;2024-01-30T09:05:23;3.70;91.30
79439;DHT22;68889;48.232;10.110;2024-01-30T09:08:11;4.00;90.00
79439;DHT22;68889;48.232;10.110;2024-01-30T09:11:08;4.20;90.60
79439;DHT22;68889;48.232;10.110;2024-01-30T09:13:41;4.50;91.80
79439;DHT22;68889;48.232;10.110;2024-01-30T09:16:21;4.70;90.30
79439;DHT22;68889;48.232;10.110;2024-01-30T09:19:00;4.90;89.00
79439;DHT22;68889;48.232;10.110;2024-01-30T09:21:27;5.20;89.00
79439;DHT22;68889;48.232;10.110;2024-01-30T09:24:03;5.40;87.70
79439;DHT22;68889;48.232;10.110;2024-01-30T09:26:36;5.50;87.20
79439;DHT22;68889;48.232;10.110;2024-01-30T09:29:02;5.70;86.80
79439;DHT22;68889;48.232;10.110;2024-01-30T09:31:29;5.80;86.50
79439;DHT22;68889;48.232;10.110;2024-01-30T09:33:56;5.90;85.80
79439;DHT22;68889;48.232;10.110;2024-01-30T09:36:22;5.90;85.10
79439;DHT22;68889;48.232;10.110;2024-01-30T09:38:51;5.90;85.50
79439;DHT22;68889;48.232;10.110;2024-01-30T09:41:26;6.00;85.20
79439;DHT22;68889;48.232;10.110;2024-01-30T09:43:54;6.00;86.30
79439;DHT22;68889;48.232;10.110;2024-01-30T09:46:36;6.10;85.00
79439;DHT22;68889;48.232;10.110;2024-01-30T09:49:02;6.10;86.10
79439;DHT22;68889;48.232;10.110;2024-01-30T09:51:31;6.20;86.20
79439;DHT22;68889;48.232;10.110;2024-01-30T09:54:03;6.30;84.90
79439;DHT22;68889;48.232;10.110;2024-01-30T09:56:31;6.40;85.00
79439;DHT22;68889;48.232;10.110;2024-01-30T09:59:06;6.50;83.90
79439;DHT22;68889;48.232;10.110;2024-01-30T10:01:36;6.60;84.40
79439;DHT22;68889;48.232;10.110;2024-01-30T10:04:18;6.60;84.60
79439;DHT22;68889;48.232;10.110;2024-01-30T10:06:46;6.70;84.50
79439;DHT22;68889;48.232;10.110;2024-01-30T10:09:18;6.90;85.20
79439;DHT22;68889;48.232;10.110;2024-01-30T10:11:46;7.00;84.90
79439;DHT22;68889;48.232;10.110;2024-01-30T10:14:21;7.20;84.40
79439;DHT22;68889;48.232;10.110;2024-01-30T10:16:49;7.40;83.30
79439;DHT22;68889;48.232;10.110;2024-01-30T10:19:17;7.50;82.60
79439;DHT22;68889;48.232;10.110;2024-01-30T10:21:46;7.60;82.40
79439;DHT22;68889;48.232;10.110;2024-01-30T10:24:12;7.80;81.80
79439;DHT22;68889;48.232;10.110;2024-01-30T10:26:40;8.00;82.10
79439;DHT22;68889;48.232;10.110;2024-01-30T10:29:13;8.10;81.70
79439;DHT22;68889;48.232;10.110;2024-01-30T10:31:38;8.10;81.60
79439;DHT22;68889;48.232;10.110;2024-01-30T10:34:05;8.10;82.40
79439;DHT22;68889;48.232;10.110;2024-01-30T10:36:39;8.10;83.60
79439;DHT22;68889;48.232;10.110;2024-01-30T10:39:08;8.20;81.80
79439;DHT22;68889;48.232;10.110;2024-01-30T10:41:44;8.40;81.70
79439;DHT22;68889;48.232;10.110;2024-01-30T10:44:19;8.50;80.60
79439;DHT22;68889;48.232;10.110;2024-01-30T10:46:58;8.70;79.70
79439;DHT22;68889;48.232;10.110;2024-01-30T10:49:27;8.70;79.00
79439;DHT22;68889;48.232;10.110;2024-01-30T10:51:55;8.80;79.20
79439;DHT22;68889;48.232;10.110;2024-01-30T10:54:29;9.00;79.40
79439;DHT22;68889;48.232;10.110;2024-01-30T10:56:58;9.10;78.00
79439;DHT22;68889;48.232;10.110;2024-01-30T10:59:29;9.10;78.00
79439;DHT22;68889;48.232;10.110;2024-01-30T11:02:06;9.20;78.40
79439;DHT22;68889;48.232;10.110;2024-01-30T11:04:43;9.30;79.30
79439;DHT22;68889;48.232;10.110;2024-01-30T11:07:19;9.40;78.20
79439;DHT22;68889;48.232;10.110;2024-01-30T11:09:52;9.60;78.30
79439;DHT22;68889;48.232;10.110;2024-01-30T11:12:22;9.80;77.10
79439;DHT22;68889;48.232;10.110;2024-01-30T11:15:01;9.90;76.70
79439;DHT22;68889;48.232;10.110;2024-01-30T11:17:28;10.10;76.20
79439;DHT22;68889;48.232;10.110;2024-01-30T11:19:55;10.20;76.70
79439;DHT22;68889;48.232;10.110;2024-01-30T11:22:22;10.50;75.80
79439;DHT22;68889;48.232;10.110;2024-01-30T11:24:48;10.70;75.40
79439;DHT22;68889;48.232;10.110;2024-01-30T11:27:15;10.80;75.00
79439;DHT22;68889;48.232;10.110;2024-01-30T11:29:40;11.10;74.70
79439;DHT22;68889;48.232;10.110;2024-01-30T11:32:06;11.30;74.50
79439;DHT22;68889;48.232;10.110;2024-01-30T11:34:33;11.50;73.10
79439;DHT22;68889;48.232;10.110;2024-01-30T11:37:03;11.70;74.40
79439;DHT22;68889;48.232;10.110;2024-01-30T11:39:43;12.00;71.70
79439;DHT22;68889;48.232;10.110;2024-01-30T11:42:09;12.10;71.90
79439;DHT22;68889;48.232;10.110;2024-01-30T11:44:35;12.10;71.60
79439;DHT22;68889;48.232;10.110;2024-01-30T11:47:02;12.20;73.00
79439;DHT22;68889;48.232;10.110;2024-01-30T11:49:29;12.20;72.40
79439;DHT22;68889;48.232;10.110;2024-01-30T11:51:55;12.20;71.90
79439;DHT22;68889;48.232;10.110;2024-01-30T11:54:20;12.20;71.70
79439;DHT22;68889;48.232;10.110;2024-01-30T11:56:46;12.20;72.30
79439;DHT22;68889;48.232;10.110;2024-01-30T11:59:14;12.30;71.90
79439;DHT22;68889;48.232;10.110;2024-01-30T12:01:52;12.40;71.10
79439;DHT22;68889;48.232;10.110;2024-01-30T12:04:18;12.50;71.70
79439;DHT22;68889;48.232;10.110;2024-01-30T12:06:43;12.50;70.90
79439;DHT22;68889;48.232;10.110;2024-01-30T12:09:09;12.50;71.40
79439;DHT22;68889;48.232;10.110;2024-01-30T12:11:47;12.50;71.30
79439;DHT22;68889;48.232;10.110;2024-01-30T12:14:16;12.40;68.70
79439;DHT22;68889;48.232;10.110;2024-01-30T12:16:49;12.30;69.50
79439;DHT22;68889;48.232;10.110;2024-01-30T12:19:28;12.20;70.60
79439;DHT22;68889;48.232;10.110;2024-01-30T12:22:07;12.30;70.10
79439;DHT22;68889;48.232;10.110;2024-01-30T12:24:35;12.50;68.70
79439;DHT22;68889;48.232;10.110;2024-01-30T12:27:10;12.50;69.80
79439;DHT22;68889;48.232;10.110;2024-01-30T12:29:41;12.60;68.60
79439;DHT22;68889;48.232;10.110;2024-01-30T12:32:15;12.70;69.60
79439;DHT22;68889;48.232;10.110;2024-01-30T12:34:46;12.70;68.90
79439;DHT22;68889;48.232;10.110;2024-01-30T12:37:12;12.70;68.50
79439;DHT22;68889;48.232;10.110;2024-01-30T12:39:39;12.60;68.70
79439;DHT22;68889;48.232;10.110;2024-01-30T12:42:14;12.60;68.50
79439;DHT22;68889;48.232;10.110;2024-01-30T12:44:53;12.60;69.20
79439;DHT22;68889;48.232;10.110;2024-01-30T12:47:45;12.60;68.30
79439;DHT22;68889;48.232;10.110;2024-01-30T12:50:10;12.60;69.10
79439;DHT22;68889;48.232;10.110;2024-01-30T12:52:46;12.60;70.40
79439;DHT22;68889;48.232;10.110;2024-01-30T12:55:19;12.60;68.40
79439;DHT22;68889;48.232;10.110;2024-01-30T12:57:46;12.70;68.40
79439;DHT22;68889;48.232;10.110;2024-01-30T13:00:31;12.70;69.50
79439;DHT22;68889;48.232;10.110;2024-01-30T13:03:03;12.70;68.20
79439;DHT22;68889;48.232;10.110;2024-01-30T13:05:32;12.70;69.70
79439;DHT22;68889;48.232;10.110;2024-01-30T13:07:59;12.70;68.80
79439;DHT22;68889;48.232;10.110;2024-01-30T13:10:26;12.70;69.80
79439;DHT22;68889;48.232;10.110;2024-01-30T13:12:53;12.70;70.00
79439;DHT22;68889;48.232;10.110;2024-01-30T13:15:25;12.50;69.60
79439;DHT22;68889;48.232;10.110;2024-01-30T13:18:11;12.50;69.80
79439;DHT22;68889;48.232;10.110;2024-01-30T13:20:45;12.40;69.60
79439;DHT22;68889;48.232;10.110;2024-01-30T13:23:12;12.30;71.20
79439;DHT22;68889;48.232;10.110;2024-01-30T13:25:53;12.20;71.50
79439;DHT22;68889;48.232;10.110;2024-01-30T13:28:28;12.10;70.80
79439;DHT22;68889;48.232;10.110;2024-01-30T13:30:58;12.10;70.90
79439;DHT22;68889;48.232;10.110;2024-01-30T13:33:25;12.00;71.80
79439;DHT22;68889;48.232;10.110;2024-01-30T13:35:51;12.00;71.20
79439;DHT22;68889;48.232;10.110;2024-01-30T13:38:18;12.10;71.60
79439;DHT22;68889;48.232;10.110;2024-01-30T13:40:44;12.20;69.80
79439;DHT22;68889;48.232;10.110;2024-01-30T13:43:09;12.30;69.70
79439;DHT22;68889;48.232;10.110;2024-01-30T13:45:36;12.30;69.80
79439;DHT22;68889;48.232;10.110;2024-01-30T13:48:03;12.20;69.80
79439;DHT22;68889;48.232;10.110;2024-01-30T13:50:36;12.20;70.50
79439;DHT22;68889;48.232;10.110;2024-01-30T13:53:06;12.10;71.00
79439;DHT22;68889;48.232;10.110;2024-01-30T13:55:57;12.10;70.50
79439;DHT22;68889;48.232;10.110;2024-01-30T13:58:32;12.00;71.80
79439;DHT22;68889;48.232;10.110;2024-01-30T14:01:19;12.00;71.40
79439;DHT22;68889;48.232;10.110;2024-01-30T14:04:07;12.00;72.00
79439;DHT22;68889;48.232;10.110;2024-01-30T14:06:41;12.00;72.60
79439;DHT22;68889;48.232;10.110;2024-01-30T14:09:10;12.00;72.80
79439;DHT22;68889;48.232;10.110;2024-01-30T14:11:36;12.00;72.30
79439;DHT22;68889;48.232;10.110;2024-01-30T14:14:02;12.00;72.90
79439;DHT22;68889;48.232;10.110;2024-01-30T14:16:29;12.00;71.90
79439;DHT22;68889;48.232;10.110;2024-01-30T14:18:57;12.00;71.60
79439;DHT22;68889;48.232;10.110;2024-01-30T14:21:23;12.00;72.30
79439;DHT22;68889;48.232;10.110;2024-01-30T14:23:49;11.90;72.10
79439;DHT22;68889;48.232;10.110;2024-01-30T14:26:20;11.90;72.60
79439;DHT22;68889;48.232;10.110;2024-01-30T14:28:46;11.90;72.40
79439;DHT22;68889;48.232;10.110;2024-01-30T14:31:12;11.80;73.70
79439;DHT22;68889;48.232;10.110;2024-01-30T14:33:39;11.80;74.20
79439;DHT22;68889;48.232;10.110;2024-01-30T14:36:05;11.70;73.20
79439;DHT22;68889;48.232;10.110;2024-01-30T14:38:31;11.70;74.70
79439;DHT22;68889;48.232;10.110;2024-01-30T14:40:57;11.60;74.20
79439;DHT22;68889;48.232;10.110;2024-01-30T14:43:23;11.60;74.10
79439;DHT22;68889;48.232;10.110;2024-01-30T14:45:49;11.50;74.40
79439;DHT22;68889;48.232;10.110;2024-01-30T14:48:17;11.40;74.70
79439;DHT22;68889;48.232;10.110;2024-01-30T14:50:46;11.40;74.20
79439;DHT22;68889;48.232;10.110;2024-01-30T14:53:12;11.30;74.10
79439;DHT22;68889;48.232;10.110;2024-01-30T14:55:39;11.30;74.30
79439;DHT22;68889;48.232;10.110;2024-01-30T14:58:05;11.20;74.00
79439;DHT22;68889;48.232;10.110;2024-01-30T15:00:33;11.10;74.30
79439;DHT22;68889;48.232;10.110;2024-01-30T15:02:59;11.00;74.20
79439;DHT22;68889;48.232;10.110;2024-01-30T15:05:27;11.00;74.60
79439;DHT22;68889;48.232;10.110;2024-01-30T15:07:53;11.00;74.50
79439;DHT22;68889;48.232;10.110;2024-01-30T15:10:47;10.90;74.60
79439;DHT22;68889;48.232;10.110;2024-01-30T15:13:12;10.90;74.40
79439;DHT22;68889;48.232;10.110;2024-01-30T15:15:57;11.00;75.00
79439;DHT22;68889;48.232;10.110;2024-01-30T15:18:23;11.00;74.70
79439;DHT22;68889;48.232;10.110;2024-01-30T15:20:49;11.00;74.20
79439;DHT22;68889;48.232;10.110;2024-01-30T15:23:15;10.90;74.40
79439;DHT22;68889;48.232;10.110;2024-01-30T15:25:44;10.80;75.40
79439;DHT22;68889;48.232;10.110;2024-01-30T15:28:10;10.70;75.00
79439;DHT22;68889;48.232;10.110;2024-01-30T15:30:42;10.60;74.60
79439;DHT22;68889;48.232;10.110;2024-01-30T15:33:09;10.50;75.10
79439;DHT22;68889;48.232;10.110;2024-01-30T15:35:34;10.30;75.20